Fairbanks, AK (99709)

2:53 AM AKST on December 07, 2016 (GMT -0900)
| | Change Station

Elev -9999 ft 0.00 °N, 0.00 °E | Updated

Clear
Clear
-19 °F
Feels Like -19 °F
N
3
Wind Variable Wind from NE
Gusts mph

Today
High -- | Low -- °F
--% Chance of Precip.
Yesterday
High -- | Low -- °F
Precip. -- in
Pressure 30.65 in
Visibility 10.0 miles
Clouds Clear
Dew Point -27 °F
Humidity 67%
Rainfall --
Snow Depth Not available.
10:38 AM 2:48 PM
First Quarter, 51% visible
METAR PAFA 071053Z 00000KT 10SM CLR M33/M37 A3058 RMK AO2 SLP378 T13331367 VISNO NE $
Pressure 30.65 in
Visibility 10.0 miles
Clouds Clear
Dew Point -27 °F
Humidity 67%
Rainfall --
Snow Depth Not available.
10:38 AM 2:48 PM
First Quarter, 51% visible
METAR PAFA 071053Z 00000KT 10SM CLR M33/M37 A3058 RMK AO2 SLP378 T13331367 VISNO NE $

10-Day Weather Forecast

Almanac

Astronomy

Dec. 07, 2016 Rise Set
Actual Time
Civil Twilight
Nautical Twilight
Astronomical Twilight
Moon
Length of Visible Light
Length of Day
Tomorrow will be .
, % of the Moon is Illuminated

Today's Extremes

State Highs State Lows

Community

WunderPhotos

Upload Photos

1,956,111 photos uploaded!

WunderBlog® & News

Nearby

Air Quality

  Air Quality AQ Index Pollutant
Not available.

Snow Depth

Station Depth Elevation

Earthquake Activity

City Distance Mag. Time & Date
Minimum magnitude displayed is 2.5.

Coastal Water Temperatures

Place Temperature

Stations

Nearby Weather Stations

Station Location Temp. Windchill Dew Point Humidity Wind Precip. Elev Updated Type
                   

Watches & Warnings

There are currently no watches in effect.